sensor_id;sensor_type;location;lat;lon;timestamp;temperature;humidity
24460;DHT22;12630;50.860;5.714;2022-11-12T00:00:51;7.70;1.00
24460;DHT22;12630;50.860;5.714;2022-11-12T00:03:18;7.70;1.00
24460;DHT22;12630;50.860;5.714;2022-11-12T00:05:45;7.70;99.90
24460;DHT22;12630;50.860;5.714;2022-11-12T00:08:14;7.60;1.00
24460;DHT22;12630;50.860;5.714;2022-11-12T00:10:42;7.40;1.00
24460;DHT22;12630;50.860;5.714;2022-11-12T00:13:09;7.30;99.90
24460;DHT22;12630;50.860;5.714;2022-11-12T00:15:36;7.20;99.90
24460;DHT22;12630;50.860;5.714;2022-11-12T00:18:03;7.20;99.90
24460;DHT22;12630;50.860;5.714;2022-11-12T00:20:31;7.10;1.00
24460;DHT22;12630;50.860;5.714;2022-11-12T00:22:58;6.90;1.00
24460;DHT22;12630;50.860;5.714;2022-11-12T00:25:26;6.80;1.00
24460;DHT22;12630;50.860;5.714;2022-11-12T00:27:56;6.60;1.00
24460;DHT22;12630;50.860;5.714;2022-11-12T00:30:26;6.30;1.00
24460;DHT22;12630;50.860;5.714;2022-11-12T00:32:53;6.20;1.00
24460;DHT22;12630;50.860;5.714;2022-11-12T00:35:20;6.10;1.00
24460;DHT22;12630;50.860;5.714;2022-11-12T00:37:47;5.90;1.00
24460;DHT22;12630;50.860;5.714;2022-11-12T00:40:18;5.80;1.00
24460;DHT22;12630;50.860;5.714;2022-11-12T00:42:45;5.60;1.00
24460;DHT22;12630;50.860;5.714;2022-11-12T00:45:13;5.50;1.00
24460;DHT22;12630;50.860;5.714;2022-11-12T00:47:40;5.50;1.00
24460;DHT22;12630;50.860;5.714;2022-11-12T00:50:08;5.50;1.00
24460;DHT22;12630;50.860;5.714;2022-11-12T00:52:35;5.50;1.00
24460;DHT22;12630;50.860;5.714;2022-11-12T00:55:02;5.50;9.80
24460;DHT22;12630;50.860;5.714;2022-11-12T00:57:29;5.40;16.40
24460;DHT22;12630;50.860;5.714;2022-11-12T00:59:56;5.30;26.30
24460;DHT22;12630;50.860;5.714;2022-11-12T01:02:24;5.20;35.00
24460;DHT22;12630;50.860;5.714;2022-11-12T01:04:51;5.20;46.40
24460;DHT22;12630;50.860;5.714;2022-11-12T01:07:18;5.20;54.40
24460;DHT22;12630;50.860;5.714;2022-11-12T01:09:45;5.10;64.60
24460;DHT22;12630;50.860;5.714;2022-11-12T01:12:12;5.00;72.80
24460;DHT22;12630;50.860;5.714;2022-11-12T01:14:39;5.00;82.00
24460;DHT22;12630;50.860;5.714;2022-11-12T01:17:06;4.90;90.10
24460;DHT22;12630;50.860;5.714;2022-11-12T01:19:34;4.80;94.90
24460;DHT22;12630;50.860;5.714;2022-11-12T01:22:02;4.80;99.00
24460;DHT22;12630;50.860;5.714;2022-11-12T01:24:28;4.70;99.90
24460;DHT22;12630;50.860;5.714;2022-11-12T01:26:55;4.60;99.90
24460;DHT22;12630;50.860;5.714;2022-11-12T01:29:22;4.60;99.90
24460;DHT22;12630;50.860;5.714;2022-11-12T01:31:49;4.60;99.90
24460;DHT22;12630;50.860;5.714;2022-11-12T01:34:16;4.50;99.90
24460;DHT22;12630;50.860;5.714;2022-11-12T01:36:44;4.50;99.90
24460;DHT22;12630;50.860;5.714;2022-11-12T01:39:11;4.50;99.90
24460;DHT22;12630;50.860;5.714;2022-11-12T01:41:39;4.50;99.90
24460;DHT22;12630;50.860;5.714;2022-11-12T01:44:11;4.50;99.90
24460;DHT22;12630;50.860;5.714;2022-11-12T01:46:40;4.40;99.90
24460;DHT22;12630;50.860;5.714;2022-11-12T01:49:10;4.30;99.90
24460;DHT22;12630;50.860;5.714;2022-11-12T01:51:39;4.30;99.90
24460;DHT22;12630;50.860;5.714;2022-11-12T01:54:10;4.20;99.90
24460;DHT22;12630;50.860;5.714;2022-11-12T01:56:39;4.20;99.90
24460;DHT22;12630;50.860;5.714;2022-11-12T01:59:06;4.20;99.90
24460;DHT22;12630;50.860;5.714;2022-11-12T02:01:37;4.20;99.90
24460;DHT22;12630;50.860;5.714;2022-11-12T02:04:04;4.20;99.90
24460;DHT22;12630;50.860;5.714;2022-11-12T02:06:31;4.10;99.90
24460;DHT22;12630;50.860;5.714;2022-11-12T02:08:59;4.10;99.90
24460;DHT22;12630;50.860;5.714;2022-11-12T02:11:28;4.20;99.90
24460;DHT22;12630;50.860;5.714;2022-11-12T02:13:54;4.20;99.90
24460;DHT22;12630;50.860;5.714;2022-11-12T02:16:26;4.10;99.90
24460;DHT22;12630;50.860;5.714;2022-11-12T02:18:54;4.10;99.90
24460;DHT22;12630;50.860;5.714;2022-11-12T02:21:22;4.00;99.90
24460;DHT22;12630;50.860;5.714;2022-11-12T02:23:56;3.90;99.90
24460;DHT22;12630;50.860;5.714;2022-11-12T02:26:24;3.90;99.90
24460;DHT22;12630;50.860;5.714;2022-11-12T02:28:51;3.90;99.90
24460;DHT22;12630;50.860;5.714;2022-11-12T02:31:18;3.90;99.90
24460;DHT22;12630;50.860;5.714;2022-11-12T02:33:45;3.90;99.90
24460;DHT22;12630;50.860;5.714;2022-11-12T02:36:12;4.00;99.90
24460;DHT22;12630;50.860;5.714;2022-11-12T02:38:40;4.10;99.90
24460;DHT22;12630;50.860;5.714;2022-11-12T02:41:07;3.90;99.90
24460;DHT22;12630;50.860;5.714;2022-11-12T02:43:34;3.90;99.90
24460;DHT22;12630;50.860;5.714;2022-11-12T02:46:01;3.90;99.90
24460;DHT22;12630;50.860;5.714;2022-11-12T02:48:28;3.80;99.90
24460;DHT22;12630;50.860;5.714;2022-11-12T02:50:55;3.80;99.90
24460;DHT22;12630;50.860;5.714;2022-11-12T02:53:22;3.80;99.90
24460;DHT22;12630;50.860;5.714;2022-11-12T02:55:51;3.80;99.90
24460;DHT22;12630;50.860;5.714;2022-11-12T02:58:18;3.70;99.90
24460;DHT22;12630;50.860;5.714;2022-11-12T03:00:47;3.80;99.90
24460;DHT22;12630;50.860;5.714;2022-11-12T03:03:14;3.80;99.90
24460;DHT22;12630;50.860;5.714;2022-11-12T03:05:40;3.90;99.90
24460;DHT22;12630;50.860;5.714;2022-11-12T03:08:08;4.00;99.90
24460;DHT22;12630;50.860;5.714;2022-11-12T03:10:35;3.90;99.90
24460;DHT22;12630;50.860;5.714;2022-11-12T03:13:04;3.80;99.90
24460;DHT22;12630;50.860;5.714;2022-11-12T03:15:31;3.80;99.90
24460;DHT22;12630;50.860;5.714;2022-11-12T03:17:58;3.80;99.90
24460;DHT22;12630;50.860;5.714;2022-11-12T03:20:25;3.80;99.90
24460;DHT22;12630;50.860;5.714;2022-11-12T03:22:56;3.80;99.90
24460;DHT22;12630;50.860;5.714;2022-11-12T03:25:23;3.70;99.90
24460;DHT22;12630;50.860;5.714;2022-11-12T03:27:55;3.80;99.90
24460;DHT22;12630;50.860;5.714;2022-11-12T03:30:23;3.80;99.90
24460;DHT22;12630;50.860;5.714;2022-11-12T03:32:50;3.70;99.90
24460;DHT22;12630;50.860;5.714;2022-11-12T03:35:17;3.70;99.90
24460;DHT22;12630;50.860;5.714;2022-11-12T03:37:44;3.70;99.90
24460;DHT22;12630;50.860;5.714;2022-11-12T03:40:11;3.70;99.90
24460;DHT22;12630;50.860;5.714;2022-11-12T03:42:43;3.70;99.90
24460;DHT22;12630;50.860;5.714;2022-11-12T03:45:10;3.70;99.90
24460;DHT22;12630;50.860;5.714;2022-11-12T03:47:40;3.60;99.90
24460;DHT22;12630;50.860;5.714;2022-11-12T03:50:07;3.60;99.90
24460;DHT22;12630;50.860;5.714;2022-11-12T03:52:34;3.50;99.90
24460;DHT22;12630;50.860;5.714;2022-11-12T03:55:02;3.50;99.90
24460;DHT22;12630;50.860;5.714;2022-11-12T03:57:29;3.60;99.90
24460;DHT22;12630;50.860;5.714;2022-11-12T03:59:55;3.60;99.90
24460;DHT22;12630;50.860;5.714;2022-11-12T04:02:22;3.60;99.90
24460;DHT22;12630;50.860;5.714;2022-11-12T04:04:53;3.50;99.90
24460;DHT22;12630;50.860;5.714;2022-11-12T04:07:37;3.40;99.90
24460;DHT22;12630;50.860;5.714;2022-11-12T04:10:21;3.40;99.90
24460;DHT22;12630;50.860;5.714;2022-11-12T04:12:48;3.40;99.90
24460;DHT22;12630;50.860;5.714;2022-11-12T04:15:32;3.50;99.90
24460;DHT22;12630;50.860;5.714;2022-11-12T04:17:59;3.60;99.90
24460;DHT22;12630;50.860;5.714;2022-11-12T04:20:45;3.60;99.90
24460;DHT22;12630;50.860;5.714;2022-11-12T04:23:25;3.70;99.90
24460;DHT22;12630;50.860;5.714;2022-11-12T04:25:52;3.70;99.90
24460;DHT22;12630;50.860;5.714;2022-11-12T04:28:36;3.50;99.90
24460;DHT22;12630;50.860;5.714;2022-11-12T04:31:03;3.50;99.90
24460;DHT22;12630;50.860;5.714;2022-11-12T04:33:29;3.60;99.90
24460;DHT22;12630;50.860;5.714;2022-11-12T04:35:57;3.60;99.90
24460;DHT22;12630;50.860;5.714;2022-11-12T04:38:24;3.50;99.90
24460;DHT22;12630;50.860;5.714;2022-11-12T04:40:51;3.50;99.90
24460;DHT22;12630;50.860;5.714;2022-11-12T04:43:35;3.50;99.90
24460;DHT22;12630;50.860;5.714;2022-11-12T04:46:19;3.50;99.90
24460;DHT22;12630;50.860;5.714;2022-11-12T04:48:46;3.50;99.90
24460;DHT22;12630;50.860;5.714;2022-11-12T04:51:15;3.50;99.90
24460;DHT22;12630;50.860;5.714;2022-11-12T04:54:11;3.50;99.90
24460;DHT22;12630;50.860;5.714;2022-11-12T04:56:38;3.40;99.90
24460;DHT22;12630;50.860;5.714;2022-11-12T04:59:05;3.40;99.90
24460;DHT22;12630;50.860;5.714;2022-11-12T05:01:32;3.40;99.90
24460;DHT22;12630;50.860;5.714;2022-11-12T05:03:59;3.40;99.90
24460;DHT22;12630;50.860;5.714;2022-11-12T05:06:27;3.30;99.90
24460;DHT22;12630;50.860;5.714;2022-11-12T05:09:11;3.30;99.90
24460;DHT22;12630;50.860;5.714;2022-11-12T05:11:38;3.40;99.90
24460;DHT22;12630;50.860;5.714;2022-11-12T05:14:05;3.50;99.90
24460;DHT22;12630;50.860;5.714;2022-11-12T05:16:32;3.50;99.90
24460;DHT22;12630;50.860;5.714;2022-11-12T05:19:00;3.50;99.90
24460;DHT22;12630;50.860;5.714;2022-11-12T05:21:28;3.50;99.90
24460;DHT22;12630;50.860;5.714;2022-11-12T05:24:13;3.40;99.90
24460;DHT22;12630;50.860;5.714;2022-11-12T05:26:40;3.50;99.90
24460;DHT22;12630;50.860;5.714;2022-11-12T05:29:07;3.50;99.90
24460;DHT22;12630;50.860;5.714;2022-11-12T05:31:34;3.60;99.90
24460;DHT22;12630;50.860;5.714;2022-11-12T05:34:01;3.60;99.90
24460;DHT22;12630;50.860;5.714;2022-11-12T05:36:29;3.60;99.90
24460;DHT22;12630;50.860;5.714;2022-11-12T05:38:56;3.50;99.90
24460;DHT22;12630;50.860;5.714;2022-11-12T05:41:23;3.50;99.90
24460;DHT22;12630;50.860;5.714;2022-11-12T05:43:51;3.50;99.90
24460;DHT22;12630;50.860;5.714;2022-11-12T05:46:18;3.50;99.90
24460;DHT22;12630;50.860;5.714;2022-11-12T05:48:45;3.60;99.90
24460;DHT22;12630;50.860;5.714;2022-11-12T05:51:12;3.60;99.90
24460;DHT22;12630;50.860;5.714;2022-11-12T05:53:40;3.60;99.90
24460;DHT22;12630;50.860;5.714;2022-11-12T05:56:08;3.60;99.90
24460;DHT22;12630;50.860;5.714;2022-11-12T05:58:35;3.60;99.90
24460;DHT22;12630;50.860;5.714;2022-11-12T06:01:02;3.50;99.90
24460;DHT22;12630;50.860;5.714;2022-11-12T06:03:29;3.40;99.90
24460;DHT22;12630;50.860;5.714;2022-11-12T06:05:56;3.30;99.90
24460;DHT22;12630;50.860;5.714;2022-11-12T06:08:23;3.30;99.90
24460;DHT22;12630;50.860;5.714;2022-11-12T06:10:52;3.30;99.90
24460;DHT22;12630;50.860;5.714;2022-11-12T06:13:19;3.40;99.90
24460;DHT22;12630;50.860;5.714;2022-11-12T06:15:46;3.40;99.90
24460;DHT22;12630;50.860;5.714;2022-11-12T06:18:13;3.40;99.90
24460;DHT22;12630;50.860;5.714;2022-11-12T06:20:41;3.30;99.90
24460;DHT22;12630;50.860;5.714;2022-11-12T06:23:08;3.30;99.90
24460;DHT22;12630;50.860;5.714;2022-11-12T06:25:35;3.30;99.90
24460;DHT22;12630;50.860;5.714;2022-11-12T06:28:03;3.30;99.90
24460;DHT22;12630;50.860;5.714;2022-11-12T06:30:30;3.40;99.90
24460;DHT22;12630;50.860;5.714;2022-11-12T06:32:57;3.40;99.90
24460;DHT22;12630;50.860;5.714;2022-11-12T06:35:24;3.40;99.90
24460;DHT22;12630;50.860;5.714;2022-11-12T06:37:51;3.40;99.90
24460;DHT22;12630;50.860;5.714;2022-11-12T06:40:19;3.40;99.90
24460;DHT22;12630;50.860;5.714;2022-11-12T06:42:46;3.30;99.90
24460;DHT22;12630;50.860;5.714;2022-11-12T06:45:15;3.30;99.90
24460;DHT22;12630;50.860;5.714;2022-11-12T06:47:42;3.40;99.90
24460;DHT22;12630;50.860;5.714;2022-11-12T06:50:09;3.40;99.90
24460;DHT22;12630;50.860;5.714;2022-11-12T06:52:36;3.30;99.90
24460;DHT22;12630;50.860;5.714;2022-11-12T06:55:03;3.40;99.90
24460;DHT22;12630;50.860;5.714;2022-11-12T06:57:30;3.60;99.90
24460;DHT22;12630;50.860;5.714;2022-11-12T06:59:57;3.80;99.90
24460;DHT22;12630;50.860;5.714;2022-11-12T07:02:25;4.00;99.90
24460;DHT22;12630;50.860;5.714;2022-11-12T07:04:52;3.90;99.90
24460;DHT22;12630;50.860;5.714;2022-11-12T07:07:19;3.90;99.90
24460;DHT22;12630;50.860;5.714;2022-11-12T07:09:46;3.80;99.90
24460;DHT22;12630;50.860;5.714;2022-11-12T07:12:13;3.90;99.90
24460;DHT22;12630;50.860;5.714;2022-11-12T07:14:40;4.10;99.90
24460;DHT22;12630;50.860;5.714;2022-11-12T07:17:07;4.10;99.90
24460;DHT22;12630;50.860;5.714;2022-11-12T07:19:35;4.10;99.90
24460;DHT22;12630;50.860;5.714;2022-11-12T07:22:02;4.10;99.90
24460;DHT22;12630;50.860;5.714;2022-11-12T07:24:29;4.20;99.90
24460;DHT22;12630;50.860;5.714;2022-11-12T07:26:56;4.30;99.90
24460;DHT22;12630;50.860;5.714;2022-11-12T07:29:23;4.60;99.90
24460;DHT22;12630;50.860;5.714;2022-11-12T07:31:50;5.00;99.90
24460;DHT22;12630;50.860;5.714;2022-11-12T07:34:17;5.30;99.90
24460;DHT22;12630;50.860;5.714;2022-11-12T07:36:45;5.80;99.90
24460;DHT22;12630;50.860;5.714;2022-11-12T07:39:16;6.30;99.90
24460;DHT22;12630;50.860;5.714;2022-11-12T07:41:43;6.70;99.90
24460;DHT22;12630;50.860;5.714;2022-11-12T07:44:10;7.40;94.90
24460;DHT22;12630;50.860;5.714;2022-11-12T07:46:37;8.20;14.10
24460;DHT22;12630;50.860;5.714;2022-11-12T07:49:04;8.80;1.00
24460;DHT22;12630;50.860;5.714;2022-11-12T07:51:31;8.80;99.90
24460;DHT22;12630;50.860;5.714;2022-11-12T07:53:59;9.20;1.00
24460;DHT22;12630;50.860;5.714;2022-11-12T07:56:26;9.70;99.90
24460;DHT22;12630;50.860;5.714;2022-11-12T07:58:54;10.00;1.00
24460;DHT22;12630;50.860;5.714;2022-11-12T08:01:22;10.10;1.00
24460;DHT22;12630;50.860;5.714;2022-11-12T08:03:49;9.70;1.00
24460;DHT22;12630;50.860;5.714;2022-11-12T08:06:17;10.10;99.90
24460;DHT22;12630;50.860;5.714;2022-11-12T08:08:44;10.30;99.90
24460;DHT22;12630;50.860;5.714;2022-11-12T08:11:12;10.70;99.90
24460;DHT22;12630;50.860;5.714;2022-11-12T08:13:39;10.80;1.00
24460;DHT22;12630;50.860;5.714;2022-11-12T08:16:06;10.50;1.00
24460;DHT22;12630;50.860;5.714;2022-11-12T08:18:33;10.50;1.00
24460;DHT22;12630;50.860;5.714;2022-11-12T08:21:00;11.40;1.00
24460;DHT22;12630;50.860;5.714;2022-11-12T08:23:28;12.20;1.00
24460;DHT22;12630;50.860;5.714;2022-11-12T08:25:58;12.70;99.90
24460;DHT22;12630;50.860;5.714;2022-11-12T08:28:28;12.50;99.90
24460;DHT22;12630;50.860;5.714;2022-11-12T08:30:56;13.20;99.90
24460;DHT22;12630;50.860;5.714;2022-11-12T08:33:23;13.30;99.90
24460;DHT22;12630;50.860;5.714;2022-11-12T08:35:50;13.40;1.00
24460;DHT22;12630;50.860;5.714;2022-11-12T08:38:17;13.00;1.00
24460;DHT22;12630;50.860;5.714;2022-11-12T08:40:44;13.30;1.00
24460;DHT22;12630;50.860;5.714;2022-11-12T08:43:11;13.30;1.00
24460;DHT22;12630;50.860;5.714;2022-11-12T08:45:40;13.30;1.00
24460;DHT22;12630;50.860;5.714;2022-11-12T08:48:08;13.60;1.00
24460;DHT22;12630;50.860;5.714;2022-11-12T08:50:35;14.10;1.00
24460;DHT22;12630;50.860;5.714;2022-11-12T08:53:03;14.10;1.00
24460;DHT22;12630;50.860;5.714;2022-11-12T08:55:31;14.60;1.00
24460;DHT22;12630;50.860;5.714;2022-11-12T08:57:58;14.90;1.00
24460;DHT22;12630;50.860;5.714;2022-11-12T09:00:26;15.00;1.00
24460;DHT22;12630;50.860;5.714;2022-11-12T09:02:55;14.80;1.00
24460;DHT22;12630;50.860;5.714;2022-11-12T09:05:22;14.50;1.00
24460;DHT22;12630;50.860;5.714;2022-11-12T09:07:55;14.40;1.00
24460;DHT22;12630;50.860;5.714;2022-11-12T09:10:22;14.90;1.00
24460;DHT22;12630;50.860;5.714;2022-11-12T09:12:49;14.40;1.00
24460;DHT22;12630;50.860;5.714;2022-11-12T09:15:17;14.60;1.00
24460;DHT22;12630;50.860;5.714;2022-11-12T09:17:44;14.90;1.00
24460;DHT22;12630;50.860;5.714;2022-11-12T09:20:12;14.70;1.00
24460;DHT22;12630;50.860;5.714;2022-11-12T09:22:39;14.80;1.00
24460;DHT22;12630;50.860;5.714;2022-11-12T09:25:06;14.60;1.00
24460;DHT22;12630;50.860;5.714;2022-11-12T09:27:33;14.80;1.00
24460;DHT22;12630;50.860;5.714;2022-11-12T09:30:00;15.00;1.00
24460;DHT22;12630;50.860;5.714;2022-11-12T09:32:27;15.70;1.00
24460;DHT22;12630;50.860;5.714;2022-11-12T09:34:54;15.60;1.00
24460;DHT22;12630;50.860;5.714;2022-11-12T09:37:23;15.70;1.00
24460;DHT22;12630;50.860;5.714;2022-11-12T09:39:50;15.60;1.00
24460;DHT22;12630;50.860;5.714;2022-11-12T09:42:17;14.80;1.00
24460;DHT22;12630;50.860;5.714;2022-11-12T09:44:45;14.70;1.00
24460;DHT22;12630;50.860;5.714;2022-11-12T09:47:16;14.50;1.00
24460;DHT22;12630;50.860;5.714;2022-11-12T09:49:47;14.60;1.00
24460;DHT22;12630;50.860;5.714;2022-11-12T09:52:16;14.70;1.00
24460;DHT22;12630;50.860;5.714;2022-11-12T09:54:46;15.20;1.00
24460;DHT22;12630;50.860;5.714;2022-11-12T09:57:16;15.80;1.00
24460;DHT22;12630;50.860;5.714;2022-11-12T09:59:43;15.50;1.00
24460;DHT22;12630;50.860;5.714;2022-11-12T10:02:16;15.90;1.00
24460;DHT22;12630;50.860;5.714;2022-11-12T10:05:00;15.70;1.00
24460;DHT22;12630;50.860;5.714;2022-11-12T10:07:36;15.30;1.00
24460;DHT22;12630;50.860;5.714;2022-11-12T10:10:08;15.60;1.00
24460;DHT22;12630;50.860;5.714;2022-11-12T10:12:42;16.10;1.00
24460;DHT22;12630;50.860;5.714;2022-11-12T10:18:14;16.30;1.00
24460;DHT22;12630;50.860;5.714;2022-11-12T10:20:42;16.70;1.00
24460;DHT22;12630;50.860;5.714;2022-11-12T10:23:14;16.80;1.00
24460;DHT22;12630;50.860;5.714;2022-11-12T10:25:43;16.80;1.00
24460;DHT22;12630;50.860;5.714;2022-11-12T10:28:23;17.00;1.00
24460;DHT22;12630;50.860;5.714;2022-11-12T10:30:51;16.60;1.00
24460;DHT22;12630;50.860;5.714;2022-11-12T10:33:19;17.00;1.00
24460;DHT22;12630;50.860;5.714;2022-11-12T10:35:46;17.20;1.00
24460;DHT22;12630;50.860;5.714;2022-11-12T10:38:14;17.30;1.00
24460;DHT22;12630;50.860;5.714;2022-11-12T10:40:45;17.70;1.00
24460;DHT22;12630;50.860;5.714;2022-11-12T10:43:19;17.40;1.00
24460;DHT22;12630;50.860;5.714;2022-11-12T10:45:47;18.00;1.00
24460;DHT22;12630;50.860;5.714;2022-11-12T10:48:21;18.30;1.00
24460;DHT22;12630;50.860;5.714;2022-11-12T10:50:49;18.20;1.00
24460;DHT22;12630;50.860;5.714;2022-11-12T10:53:28;18.00;1.00
24460;DHT22;12630;50.860;5.714;2022-11-12T10:55:58;17.90;1.00
24460;DHT22;12630;50.860;5.714;2022-11-12T10:58:25;17.90;1.00
24460;DHT22;12630;50.860;5.714;2022-11-12T11:01:02;18.20;1.00
24460;DHT22;12630;50.860;5.714;2022-11-12T11:03:30;18.40;1.00
24460;DHT22;12630;50.860;5.714;2022-11-12T11:05:59;18.80;1.00
24460;DHT22;12630;50.860;5.714;2022-11-12T11:08:31;18.70;1.00
24460;DHT22;12630;50.860;5.714;2022-11-12T11:11:09;18.50;1.00
24460;DHT22;12630;50.860;5.714;2022-11-12T11:13:36;18.40;1.00
24460;DHT22;12630;50.860;5.714;2022-11-12T11:16:04;18.20;1.00
24460;DHT22;12630;50.860;5.714;2022-11-12T11:18:32;18.20;1.00
24460;DHT22;12630;50.860;5.714;2022-11-12T11:21:06;18.50;99.90
24460;DHT22;12630;50.860;5.714;2022-11-12T11:23:39;18.80;99.90
24460;DHT22;12630;50.860;5.714;2022-11-12T11:26:19;19.40;99.90
24460;DHT22;12630;50.860;5.714;2022-11-12T11:28:49;19.60;1.00
24460;DHT22;12630;50.860;5.714;2022-11-12T11:31:22;19.60;99.90
24460;DHT22;12630;50.860;5.714;2022-11-12T11:33:53;19.60;99.90
24460;DHT22;12630;50.860;5.714;2022-11-12T11:36:25;20.10;99.90
24460;DHT22;12630;50.860;5.714;2022-11-12T11:38:56;19.80;99.90
24460;DHT22;12630;50.860;5.714;2022-11-12T11:44:14;19.20;99.90
24460;DHT22;12630;50.860;5.714;2022-11-12T11:46:53;18.70;99.90
24460;DHT22;12630;50.860;5.714;2022-11-12T11:52:07;17.70;99.90
24460;DHT22;12630;50.860;5.714;2022-11-12T11:54:44;17.50;99.90
24460;DHT22;12630;50.860;5.714;2022-11-12T11:57:14;17.30;99.90
24460;DHT22;12630;50.860;5.714;2022-11-12T11:59:46;17.50;1.00
24460;DHT22;12630;50.860;5.714;2022-11-12T12:02:20;17.30;99.90
